createdAt,value
2018-11-26T00:01:27.236Z,79.10
2018-11-26T00:03:59.235Z,76.17
2018-11-26T00:06:31.238Z,83.93
2018-11-26T00:09:03.537Z,84.67
2018-11-26T00:11:36.512Z,84.70
2018-11-26T00:14:08.530Z,75.87
2018-11-26T00:16:40.539Z,85.00
2018-11-26T00:19:12.538Z,71.17
2018-11-26T00:21:44.590Z,94.80
2018-11-26T00:24:16.599Z,96.40
2018-11-26T00:26:48.614Z,93.10
2018-11-26T00:29:20.603Z,90.50
2018-11-26T00:31:52.671Z,90.57
2018-11-26T00:34:24.646Z,91.33
2018-11-26T00:36:56.697Z,100.63
2018-11-26T00:39:28.694Z,94.10
2018-11-26T00:42:00.669Z,100.90
2018-11-26T00:44:32.696Z,99.50
2018-11-26T00:47:04.719Z,97.20
2018-11-26T00:49:36.747Z,88.27
2018-11-26T00:52:08.736Z,82.93
2018-11-26T00:54:40.746Z,96.87
2018-11-26T00:57:12.770Z,101.83
2018-11-26T00:59:44.826Z,85.53
2018-11-26T01:02:16.829Z,90.07
2018-11-26T01:04:48.853Z,82.77
2018-11-26T01:07:20.849Z,69.60
2018-11-26T01:09:52.870Z,74.87
2018-11-26T01:12:24.863Z,80.67
2018-11-26T01:14:56.891Z,88.13
2018-11-26T01:17:28.905Z,70.87
2018-11-26T01:20:00.939Z,74.70
2018-11-26T01:22:32.925Z,84.20
2018-11-26T01:25:05.087Z,79.70
2018-11-26T01:27:37.088Z,87.63
2018-11-26T01:30:09.137Z,74.63
2018-11-26T01:32:41.371Z,86.17
2018-11-26T01:35:13.391Z,90.23
2018-11-26T01:37:45.382Z,88.20
2018-11-26T01:40:20.129Z,96.53
2018-11-26T01:42:52.134Z,87.07
2018-11-26T01:45:24.163Z,94.57
2018-11-26T01:47:56.160Z,103.73
2018-11-26T01:50:28.179Z,100.27
2018-11-26T01:53:00.156Z,113.00
2018-11-26T01:55:32.178Z,92.80
2018-11-26T01:58:04.152Z,102.30
2018-11-26T02:00:36.161Z,109.40
2018-11-26T02:03:08.172Z,91.20
2018-11-26T02:05:40.190Z,101.40
2018-11-26T02:08:12.178Z,114.20
2018-11-26T02:10:44.238Z,79.57
2018-11-26T02:13:16.290Z,90.50
2018-11-26T02:15:48.272Z,100.93
2018-11-26T02:18:20.274Z,99.33
2018-11-26T02:20:52.271Z,98.13
2018-11-26T02:23:24.318Z,92.40
2018-11-26T02:25:56.322Z,102.63
2018-11-26T02:28:28.325Z,102.70
2018-11-26T02:31:00.354Z,110.07
2018-11-26T02:33:32.385Z,103.00
2018-11-26T02:36:04.806Z,96.87
2018-11-26T02:38:36.838Z,105.33
2018-11-26T02:41:08.831Z,99.77
2018-11-26T02:43:40.872Z,100.47
2018-11-26T02:46:12.878Z,97.60
2018-11-26T02:48:44.929Z,109.13
2018-11-26T02:51:17.004Z,105.83
2018-11-26T02:53:48.955Z,103.57
2018-11-26T02:56:20.974Z,96.23
2018-11-26T02:58:52.966Z,113.07
2018-11-26T03:01:24.995Z,106.07
2018-11-26T03:03:56.986Z,106.73
2018-11-26T03:06:28.998Z,106.50
2018-11-26T03:09:00.998Z,123.70
2018-11-26T03:11:33.003Z,130.50
2018-11-26T03:14:05.396Z,120.83
2018-11-26T03:16:37.461Z,135.97
2018-11-26T03:19:09.483Z,138.73
2018-11-26T03:21:41.502Z,126.23
2018-11-26T03:24:13.496Z,133.63
2018-11-26T03:26:45.509Z,117.47
2018-11-26T03:29:17.480Z,123.43
2018-11-26T03:31:49.518Z,103.50
2018-11-26T03:34:21.542Z,112.47
2018-11-26T03:36:53.547Z,100.57
2018-11-26T03:39:25.601Z,104.30
2018-11-26T03:41:57.654Z,94.07
2018-11-26T03:44:29.655Z,104.27
2018-11-26T03:47:01.684Z,103.17
2018-11-26T03:49:33.655Z,58.87
2018-11-26T03:52:05.651Z,84.17
2018-11-26T03:54:37.675Z,90.83
2018-11-26T03:57:09.643Z,88.40
2018-11-26T03:59:41.668Z,89.47
2018-11-26T04:02:13.648Z,69.77
2018-11-26T04:04:45.664Z,88.67
2018-11-26T04:07:17.670Z,78.10
2018-11-26T04:09:49.663Z,88.33
2018-11-26T04:12:21.658Z,96.70
2018-11-26T04:14:53.677Z,97.13
2018-11-26T04:17:25.694Z,96.20
2018-11-26T04:19:57.733Z,93.37
2018-11-26T04:22:29.757Z,100.20
2018-11-26T04:25:01.807Z,93.13
2018-11-26T04:27:33.875Z,82.37
2018-11-26T04:30:09.416Z,86.97
2018-11-26T04:32:41.471Z,86.37
2018-11-26T04:35:13.480Z,66.23
2018-11-26T04:37:45.493Z,86.83
2018-11-26T04:40:17.483Z,78.47
2018-11-26T04:42:49.613Z,71.40
2018-11-26T04:45:21.631Z,74.17
2018-11-26T04:47:53.649Z,80.60
2018-11-26T04:50:25.666Z,81.53
2018-11-26T04:52:57.693Z,72.57
2018-11-26T04:55:29.765Z,80.70
2018-11-26T04:58:01.807Z,67.73
2018-11-26T05:00:33.797Z,79.80
2018-11-26T05:03:05.835Z,89.40
2018-11-26T05:05:37.843Z,81.70
2018-11-26T05:08:09.858Z,87.30
2018-11-26T05:10:41.839Z,85.00
2018-11-26T05:13:13.983Z,81.90
2018-11-26T05:15:46.330Z,77.03
2018-11-26T05:18:18.563Z,87.57
2018-11-26T05:20:50.572Z,74.27
2018-11-26T05:23:22.553Z,73.87
2018-11-26T05:25:54.564Z,86.27
2018-11-26T05:28:26.627Z,73.53
2018-11-26T05:30:58.710Z,76.93
2018-11-26T05:33:30.710Z,76.40
2018-11-26T05:36:02.749Z,83.00
2018-11-26T05:38:34.742Z,84.67
2018-11-26T05:41:06.768Z,82.17
2018-11-26T05:43:38.805Z,86.43
2018-11-26T05:46:10.826Z,86.17
2018-11-26T05:48:42.846Z,80.73
2018-11-26T05:51:14.861Z,90.97
2018-11-26T05:53:46.866Z,83.70
2018-11-26T05:56:18.889Z,83.10
2018-11-26T05:58:51.018Z,75.87
2018-11-26T06:01:23.041Z,76.03
2018-11-26T06:03:55.039Z,81.43
2018-11-26T06:06:27.074Z,76.17
2018-11-26T06:08:59.067Z,80.97
2018-11-26T06:11:31.086Z,84.43
2018-11-26T06:14:03.182Z,75.63
2018-11-26T06:16:35.966Z,80.63
2018-11-26T06:19:07.998Z,72.27
2018-11-26T06:21:40.008Z,80.10
2018-11-26T06:24:12.034Z,80.43
2018-11-26T06:26:44.047Z,83.87
2018-11-26T06:29:16.066Z,73.07
2018-11-26T06:31:48.069Z,81.03
2018-11-26T06:34:20.115Z,78.33
2018-11-26T06:36:52.117Z,78.07
2018-11-26T06:39:24.125Z,84.37
2018-11-26T06:41:56.134Z,81.97
2018-11-26T06:44:28.174Z,68.47
2018-11-26T06:47:00.187Z,86.13
2018-11-26T06:49:32.222Z,87.07
2018-11-26T06:52:04.803Z,86.40
2018-11-26T06:54:36.833Z,78.43
2018-11-26T06:57:08.865Z,83.47
2018-11-26T06:59:40.919Z,93.90
2018-11-26T07:02:12.930Z,81.90
2018-11-26T07:04:44.947Z,91.13
2018-11-26T07:07:16.976Z,86.57
2018-11-26T07:09:48.992Z,102.53
2018-11-26T07:12:20.990Z,96.27
2018-11-26T07:14:53.080Z,84.90
2018-11-26T07:17:25.065Z,93.67
2018-11-26T07:19:57.082Z,97.00
2018-11-26T07:22:29.099Z,100.03
2018-11-26T07:25:01.124Z,97.30
2018-11-26T07:27:33.154Z,93.47
2018-11-26T07:30:09.804Z,106.80
2018-11-26T07:32:41.980Z,96.93
2018-11-26T07:35:14.591Z,93.03
2018-11-26T07:37:46.666Z,99.37
2018-11-26T07:40:20.599Z,91.30
2018-11-26T07:42:58.311Z,112.83
2018-11-26T07:45:30.319Z,94.77
2018-11-26T07:48:02.383Z,105.20
2018-11-26T07:50:34.929Z,109.20
2018-11-26T07:53:08.056Z,91.93
2018-11-26T07:55:40.351Z,94.00
2018-11-26T07:58:12.385Z,96.40
2018-11-26T08:00:44.389Z,102.43
2018-11-26T08:03:16.409Z,92.17
2018-11-26T08:05:48.458Z,100.07
2018-11-26T08:08:20.584Z,101.30
2018-11-26T08:10:52.630Z,97.37
2018-11-26T08:13:24.819Z,99.87
2018-11-26T08:15:56.850Z,101.07
2018-11-26T08:18:28.919Z,92.83
2018-11-26T08:21:00.995Z,105.20
2018-11-26T08:23:33.456Z,97.67
2018-11-26T08:26:05.483Z,102.93
2018-11-26T08:28:37.617Z,100.90
2018-11-26T08:31:09.611Z,101.93
2018-11-26T08:33:41.680Z,102.37
2018-11-26T08:36:13.862Z,106.90
2018-11-26T08:38:51.382Z,100.50
2018-11-26T08:41:28.052Z,97.83
2018-11-26T08:45:07.314Z,102.97
2018-11-26T08:47:42.163Z,95.87
2018-11-26T08:50:14.271Z,92.83
2018-11-26T08:52:46.175Z,98.23
2018-11-26T08:55:18.191Z,105.07
2018-11-26T08:57:50.199Z,102.73
2018-11-26T09:00:22.224Z,107.10
2018-11-26T09:02:55.524Z,96.27
2018-11-26T09:05:33.298Z,100.20
2018-11-26T09:08:05.331Z,99.13
2018-11-26T09:10:37.358Z,99.90
2018-11-26T09:13:09.372Z,97.40
2018-11-26T09:15:41.425Z,103.93
2018-11-26T09:18:13.428Z,92.87
2018-11-26T09:20:45.439Z,97.53
2018-11-26T09:23:17.418Z,88.37
2018-11-26T09:25:49.427Z,100.43
2018-11-26T09:28:21.486Z,93.43
2018-11-26T09:30:53.642Z,89.27
2018-11-26T09:33:25.672Z,95.07
2018-11-26T09:35:57.778Z,90.00
2018-11-26T09:38:29.854Z,89.47
2018-11-26T09:41:01.903Z,86.93
2018-11-26T09:43:34.894Z,93.97
2018-11-26T09:46:06.957Z,89.37
2018-11-26T09:48:38.972Z,87.33
2018-11-26T09:51:14.363Z,92.57
2018-11-26T09:53:43.072Z,86.33
2018-11-26T09:56:15.119Z,85.60
2018-11-26T09:58:47.113Z,75.93
2018-11-26T10:01:19.140Z,67.20
2018-11-26T10:03:51.143Z,80.63
2018-11-26T10:06:23.228Z,75.20
2018-11-26T10:08:55.214Z,69.17
2018-11-26T10:11:27.249Z,66.63
2018-11-26T10:13:59.243Z,67.43
2018-11-26T10:16:31.271Z,67.03
2018-11-26T10:19:03.327Z,70.63
2018-11-26T10:21:35.319Z,62.70
2018-11-26T10:24:07.331Z,67.93
2018-11-26T10:26:39.330Z,67.37
2018-11-26T10:29:11.351Z,64.33
2018-11-26T10:31:43.359Z,73.77
2018-11-26T10:34:15.382Z,68.00
2018-11-26T10:36:47.395Z,64.50
2018-11-26T10:39:19.450Z,60.57
2018-11-26T10:41:51.456Z,71.17
2018-11-26T10:44:23.525Z,68.13
2018-11-26T10:46:55.596Z,60.33
2018-11-26T10:49:27.611Z,62.00
2018-11-26T10:51:59.752Z,60.50
2018-11-26T10:54:31.792Z,60.57
2018-11-26T10:57:04.450Z,66.80
2018-11-26T10:59:36.775Z,66.37
2018-11-26T11:02:14.710Z,61.37
2018-11-26T11:04:47.785Z,60.30
2018-11-26T11:07:18.781Z,61.63
2018-11-26T11:09:50.791Z,67.97
2018-11-26T11:12:22.811Z,66.30
2018-11-26T11:14:56.339Z,68.30
2018-11-26T11:17:28.377Z,69.00
2018-11-26T11:20:00.430Z,58.83
2018-11-26T11:22:32.456Z,69.80
2018-11-26T11:25:05.480Z,62.73
2018-11-26T11:27:37.527Z,61.53
2018-11-26T11:30:12.716Z,59.03
2018-11-26T11:32:44.816Z,63.10
2018-11-26T11:35:17.316Z,51.17
2018-11-26T11:37:50.000Z,59.63
2018-11-26T11:40:25.956Z,60.77
2018-11-26T11:42:58.883Z,57.27
2018-11-26T11:45:32.341Z,56.00
2018-11-26T11:48:04.855Z,35.57
2018-11-26T11:50:36.853Z,49.20
2018-11-26T11:53:08.908Z,37.63
2018-11-26T11:55:40.892Z,47.23
2018-11-26T11:58:12.896Z,46.37
2018-11-26T12:00:46.339Z,44.33
2018-11-26T12:03:19.224Z,48.23
2018-11-26T12:05:51.247Z,48.37
2018-11-26T12:08:23.277Z,57.97
2018-11-26T12:10:55.311Z,50.03
2018-11-26T12:13:27.328Z,48.17
2018-11-26T12:15:59.360Z,52.80
2018-11-26T12:18:31.353Z,49.23
2018-11-26T12:21:03.664Z,42.23
2018-11-26T12:23:35.706Z,45.10
2018-11-26T12:26:07.731Z,41.70
2018-11-26T12:28:39.748Z,43.83
2018-11-26T12:31:11.747Z,41.57
2018-11-26T12:33:43.820Z,42.57
2018-11-26T12:36:15.827Z,48.30
2018-11-26T12:38:47.900Z,36.77
2018-11-26T12:41:19.904Z,37.53
2018-11-26T12:43:51.943Z,43.77
2018-11-26T12:46:23.948Z,44.90
2018-11-26T12:48:55.955Z,45.97
2018-11-26T12:51:27.982Z,45.43
2018-11-26T12:54:00.032Z,40.80
2018-11-26T12:56:32.031Z,49.67
2018-11-26T12:59:04.306Z,44.00
2018-11-26T13:01:36.319Z,41.37
2018-11-26T13:04:08.336Z,46.37
2018-11-26T13:06:40.337Z,41.67
2018-11-26T13:09:12.363Z,45.87
2018-11-26T13:11:44.366Z,41.47
2018-11-26T13:14:16.413Z,42.93
2018-11-26T13:16:48.420Z,47.27
2018-11-26T13:19:20.489Z,44.20
2018-11-26T13:21:52.472Z,48.07
2018-11-26T13:24:24.516Z,37.57
2018-11-26T13:26:56.770Z,45.73
2018-11-26T13:29:28.644Z,50.97
2018-11-26T13:32:00.655Z,47.27
2018-11-26T13:34:32.781Z,45.20
2018-11-26T13:37:05.044Z,44.43
2018-11-26T13:39:37.096Z,50.13
2018-11-26T13:42:09.120Z,53.50
2018-11-26T13:44:41.195Z,55.47
2018-11-26T13:47:13.196Z,64.00
2018-11-26T13:49:45.251Z,56.73
2018-11-26T13:52:17.303Z,52.80
2018-11-26T13:54:49.325Z,54.23
2018-11-26T13:57:21.367Z,49.97
2018-11-26T13:59:53.424Z,56.97
2018-11-26T14:02:25.489Z,50.93
2018-11-26T14:04:57.492Z,63.87
2018-11-26T14:07:29.522Z,51.63
2018-11-26T14:10:01.550Z,61.60
2018-11-26T14:12:33.611Z,58.07
2018-11-26T14:15:08.183Z,61.90
2018-11-26T14:17:40.230Z,57.27
2018-11-26T14:20:13.567Z,57.43
2018-11-26T14:22:45.592Z,53.13
2018-11-26T14:25:17.943Z,51.80
2018-11-26T14:27:49.951Z,49.53
2018-11-26T14:30:24.715Z,55.43
2018-11-26T14:32:56.882Z,58.90
2018-11-26T14:35:28.889Z,58.93
2018-11-26T14:38:02.873Z,50.90
2018-11-26T14:40:38.395Z,58.80
2018-11-26T14:43:10.416Z,53.47
2018-11-26T14:45:42.445Z,61.73
2018-11-26T14:48:14.457Z,61.70
2018-11-26T14:50:46.492Z,50.27
2018-11-26T14:53:18.495Z,51.10
2018-11-26T14:55:50.528Z,64.93
2018-11-26T14:58:22.555Z,66.30
2018-11-26T15:00:54.595Z,59.93
2018-11-26T15:03:26.624Z,53.07
2018-11-26T15:05:58.659Z,60.77
2018-11-26T15:08:30.717Z,64.93
2018-11-26T15:11:02.718Z,56.03
2018-11-26T15:13:34.747Z,56.20
2018-11-26T15:16:06.769Z,59.67
2018-11-26T15:18:38.825Z,63.10
2018-11-26T15:21:10.842Z,58.57
2018-11-26T15:23:42.901Z,64.33
2018-11-26T15:26:14.879Z,57.67
2018-11-26T15:28:46.904Z,63.70
2018-11-26T15:31:18.921Z,66.43
2018-11-26T15:33:50.984Z,67.13
2018-11-26T15:36:22.998Z,46.03
2018-11-26T15:38:55.057Z,56.43
2018-11-26T15:41:27.116Z,51.07
2018-11-26T15:43:59.109Z,51.13
2018-11-26T15:46:31.148Z,54.07
2018-11-26T15:49:03.156Z,53.60
2018-11-26T15:51:35.188Z,55.87
2018-11-26T15:54:07.240Z,45.60
2018-11-26T15:56:39.259Z,45.77
2018-11-26T15:59:11.275Z,48.03
2018-11-26T16:01:43.297Z,53.87
2018-11-26T16:04:15.306Z,45.77
2018-11-26T16:06:47.339Z,56.50
2018-11-26T16:09:19.368Z,55.70
2018-11-26T16:11:51.400Z,55.30
2018-11-26T16:14:23.461Z,50.67
2018-11-26T16:16:55.551Z,61.67
2018-11-26T16:19:27.552Z,68.27
2018-11-26T16:21:59.593Z,53.07
2018-11-26T16:24:31.660Z,54.20
2018-11-26T16:27:04.010Z,56.47
2018-11-26T16:29:36.024Z,58.67
2018-11-26T16:32:08.127Z,43.13
2018-11-26T16:34:40.180Z,58.13
2018-11-26T16:37:12.254Z,52.07
2018-11-26T16:39:44.265Z,66.07
2018-11-26T16:42:16.336Z,59.37
2018-11-26T16:44:48.351Z,59.37
2018-11-26T16:47:20.415Z,51.50
2018-11-26T16:49:52.458Z,55.57
2018-11-26T16:52:24.521Z,64.93
2018-11-26T16:54:56.544Z,53.80
2018-11-26T16:57:28.610Z,62.43
2018-11-26T17:00:00.614Z,54.73
2018-11-26T17:02:32.664Z,53.70
2018-11-26T17:05:06.659Z,64.07
2018-11-26T17:07:38.698Z,54.37
2018-11-26T17:10:10.828Z,48.70
2018-11-26T17:12:42.883Z,59.13
2018-11-26T17:15:15.905Z,56.80
2018-11-26T17:17:49.024Z,55.77
2018-11-26T17:20:21.188Z,57.87
2018-11-26T17:22:53.269Z,62.63
2018-11-26T17:25:25.318Z,54.87
2018-11-26T17:27:57.329Z,64.80
2018-11-26T17:30:29.351Z,57.07
2018-11-26T17:33:02.568Z,62.27
2018-11-26T17:35:34.619Z,49.53
2018-11-26T17:38:06.857Z,52.07
2018-11-26T17:40:39.579Z,50.47
2018-11-26T17:43:13.130Z,47.80
2018-11-26T17:45:45.211Z,35.97
2018-11-26T17:48:17.230Z,35.27
2018-11-26T17:50:49.269Z,44.43
2018-11-26T17:53:21.405Z,41.47
2018-11-26T17:55:54.782Z,41.90
2018-11-26T17:58:27.585Z,47.17
2018-11-26T18:01:05.384Z,48.00
2018-11-26T18:03:37.435Z,46.57
2018-11-26T18:06:09.486Z,47.20
2018-11-26T18:08:42.314Z,53.13
2018-11-26T18:11:14.308Z,49.07
2018-11-26T18:13:46.362Z,49.03
2018-11-26T18:16:18.357Z,55.50
2018-11-26T18:18:50.497Z,47.20
2018-11-26T18:21:22.496Z,56.97
2018-11-26T18:23:54.552Z,42.93
2018-11-26T18:26:26.678Z,48.07
2018-11-26T18:28:58.710Z,46.43
2018-11-26T18:31:30.816Z,39.87
2018-11-26T18:34:02.944Z,43.60
2018-11-26T18:36:35.023Z,38.23
2018-11-26T18:39:08.591Z,39.93
2018-11-26T18:41:40.708Z,45.10
2018-11-26T18:44:12.765Z,36.77
2018-11-26T18:46:44.760Z,48.73
2018-11-26T18:49:16.957Z,42.20
2018-11-26T18:51:49.060Z,38.57
2018-11-26T18:54:21.157Z,41.50
2018-11-26T18:56:53.173Z,42.67
2018-11-26T18:59:25.292Z,39.93
2018-11-26T19:01:58.585Z,46.33
2018-11-26T19:04:31.026Z,36.70
2018-11-26T19:07:03.144Z,47.70
2018-11-26T19:09:35.237Z,45.67
2018-11-26T19:12:07.456Z,38.10
2018-11-26T19:14:39.520Z,33.33
2018-11-26T19:17:11.576Z,43.57
2018-11-26T19:19:43.689Z,38.60
2018-11-26T19:22:15.815Z,39.60
2018-11-26T19:24:48.020Z,32.63
2018-11-26T19:27:20.029Z,32.90
2018-11-26T19:29:52.097Z,40.33
2018-11-26T19:32:25.445Z,35.80
2018-11-26T19:34:57.537Z,26.47
2018-11-26T19:37:29.616Z,31.23
2018-11-26T19:40:01.749Z,30.97
2018-11-26T19:42:33.752Z,29.80
2018-11-26T19:45:10.804Z,31.77
2018-11-26T19:47:42.864Z,35.20
2018-11-26T19:50:20.934Z,28.23
2018-11-26T19:52:53.704Z,37.67
2018-11-26T19:55:26.092Z,30.33
2018-11-26T19:57:58.228Z,33.97
2018-11-26T20:00:30.388Z,30.27
2018-11-26T20:03:14.805Z,29.90
2018-11-26T20:05:55.009Z,35.40
2018-11-26T20:08:27.061Z,34.73
2018-11-26T20:10:59.137Z,29.60
2018-11-26T20:13:31.188Z,29.47
2018-11-26T20:16:03.994Z,35.77
2018-11-26T20:18:36.053Z,37.97
2018-11-26T20:21:08.149Z,29.63
2018-11-26T20:23:43.189Z,30.93
2018-11-26T20:26:15.277Z,32.27
2018-11-26T20:28:47.373Z,33.17
2018-11-26T20:31:19.868Z,31.83
2018-11-26T20:33:51.921Z,34.50
2018-11-26T20:36:23.944Z,37.63
2018-11-26T20:38:56.003Z,34.47
2018-11-26T20:41:28.063Z,30.73
2018-11-26T20:44:05.621Z,37.63
2018-11-26T20:46:38.038Z,35.33
2018-11-26T20:49:10.233Z,38.03
2018-11-26T20:51:42.239Z,30.10
2018-11-26T20:54:14.324Z,32.87
2018-11-26T20:56:46.429Z,30.97
2018-11-26T20:59:18.544Z,36.27
2018-11-26T21:01:50.577Z,33.03
2018-11-26T21:04:22.965Z,34.37
2018-11-26T21:06:55.086Z,33.47
2018-11-26T21:09:27.259Z,35.27
2018-11-26T21:11:59.316Z,39.37
2018-11-26T21:14:31.319Z,37.47
2018-11-26T21:17:03.348Z,37.27
2018-11-26T21:19:35.349Z,33.23
2018-11-26T21:22:07.388Z,37.17
2018-11-26T21:24:39.463Z,36.40
2018-11-26T21:27:11.473Z,34.30
2018-11-26T21:29:43.565Z,39.17
2018-11-26T21:32:15.616Z,37.37
2018-11-26T21:34:47.675Z,34.30
2018-11-26T21:37:19.725Z,36.10
2018-11-26T21:39:51.753Z,39.90
2018-11-26T21:42:23.788Z,37.53
2018-11-26T21:44:55.792Z,39.83
2018-11-26T21:47:27.851Z,35.33
2018-11-26T21:49:59.885Z,42.03
2018-11-26T21:52:31.931Z,39.03
2018-11-26T21:55:04.040Z,45.53
2018-11-26T21:57:36.130Z,45.47
2018-11-26T22:00:14.854Z,53.70
2018-11-26T22:02:47.063Z,53.53
2018-11-26T22:05:19.067Z,54.57
2018-11-26T22:07:51.125Z,48.40
2018-11-26T22:10:23.314Z,56.13
2018-11-26T22:12:55.348Z,52.60
2018-11-26T22:15:27.356Z,59.10
2018-11-26T22:17:59.400Z,60.40
2018-11-26T22:20:31.505Z,55.63
2018-11-26T22:23:03.991Z,58.60
2018-11-26T22:25:36.101Z,51.43
2018-11-26T22:28:09.281Z,63.10
2018-11-26T22:30:41.312Z,53.23
2018-11-26T22:33:13.355Z,61.30
2018-11-26T22:35:45.393Z,60.73
2018-11-26T22:38:17.376Z,59.67
2018-11-26T22:40:49.407Z,55.30
2018-11-26T22:43:21.450Z,70.30
2018-11-26T22:45:53.489Z,62.83
2018-11-26T22:48:25.494Z,67.03
2018-11-26T22:50:57.820Z,62.07
2018-11-26T22:53:29.893Z,69.03
2018-11-26T22:56:02.013Z,65.73
2018-11-26T22:58:34.094Z,61.83
2018-11-26T23:01:06.550Z,69.80
2018-11-26T23:03:38.632Z,66.00
2018-11-26T23:06:10.759Z,62.77
2018-11-26T23:08:42.928Z,63.10
2018-11-26T23:11:15.097Z,65.00
2018-11-26T23:13:47.252Z,70.13
2018-11-26T23:16:19.408Z,74.33
2018-11-26T23:18:51.545Z,70.90
2018-11-26T23:21:23.620Z,66.83
2018-11-26T23:23:55.683Z,55.57
2018-11-26T23:26:27.724Z,58.57
2018-11-26T23:28:59.753Z,69.93
2018-11-26T23:31:31.755Z,76.60
2018-11-26T23:34:04.041Z,72.87
2018-11-26T23:36:36.153Z,72.70
2018-11-26T23:39:08.239Z,68.97
2018-11-26T23:41:40.301Z,67.53
2018-11-26T23:44:12.397Z,77.07
2018-11-26T23:46:44.438Z,84.17
2018-11-26T23:49:16.553Z,86.30
2018-11-26T23:51:48.644Z,79.57
2018-11-26T23:54:20.749Z,81.80
2018-11-26T23:56:52.834Z,77.27
2018-11-26T23:59:24.936Z,90.03
